sensor_id;sensor_type;location;lat;lon;timestamp;P1;durP1;ratioP1;P2;durP2;ratioP2
5279;SDS011;2663;53.588;10.010;2023-03-24T00:01:44;10.17;;;6.10;;
5279;SDS011;2663;53.588;10.010;2023-03-24T00:04:11;11.30;;;5.00;;
5279;SDS011;2663;53.588;10.010;2023-03-24T00:06:39;15.17;;;5.03;;
5279;SDS011;2663;53.588;10.010;2023-03-24T00:09:06;11.07;;;4.47;;
5279;SDS011;2663;53.588;10.010;2023-03-24T00:11:32;5.87;;;4.03;;
5279;SDS011;2663;53.588;10.010;2023-03-24T00:14:03;7.90;;;4.80;;
5279;SDS011;2663;53.588;10.010;2023-03-24T00:16:30;12.13;;;4.40;;
5279;SDS011;2663;53.588;10.010;2023-03-24T00:19:00;6.10;;;3.70;;
5279;SDS011;2663;53.588;10.010;2023-03-24T00:21:26;8.40;;;4.00;;
5279;SDS011;2663;53.588;10.010;2023-03-24T00:23:54;8.03;;;4.43;;
5279;SDS011;2663;53.588;10.010;2023-03-24T00:26:23;7.67;;;4.30;;
5279;SDS011;2663;53.588;10.010;2023-03-24T00:28:51;5.00;;;3.73;;
5279;SDS011;2663;53.588;10.010;2023-03-24T00:31:17;5.40;;;3.93;;
5279;SDS011;2663;53.588;10.010;2023-03-24T00:33:45;7.03;;;3.60;;
5279;SDS011;2663;53.588;10.010;2023-03-24T00:36:19;13.47;;;4.30;;
5279;SDS011;2663;53.588;10.010;2023-03-24T00:38:48;11.53;;;6.10;;
5279;SDS011;2663;53.588;10.010;2023-03-24T00:41:15;7.10;;;3.63;;
5279;SDS011;2663;53.588;10.010;2023-03-24T00:43:42;6.90;;;4.10;;
5279;SDS011;2663;53.588;10.010;2023-03-24T00:46:10;9.13;;;3.80;;
5279;SDS011;2663;53.588;10.010;2023-03-24T00:48:39;6.63;;;3.27;;
5279;SDS011;2663;53.588;10.010;2023-03-24T00:51:07;5.33;;;2.80;;
5279;SDS011;2663;53.588;10.010;2023-03-24T00:53:36;5.67;;;3.17;;
5279;SDS011;2663;53.588;10.010;2023-03-24T00:56:02;3.43;;;3.10;;
5279;SDS011;2663;53.588;10.010;2023-03-24T00:58:29;6.33;;;2.90;;
5279;SDS011;2663;53.588;10.010;2023-03-24T01:00:59;10.30;;;3.57;;
5279;SDS011;2663;53.588;10.010;2023-03-24T01:03:26;10.53;;;2.77;;
5279;SDS011;2663;53.588;10.010;2023-03-24T01:05:53;9.00;;;3.23;;
5279;SDS011;2663;53.588;10.010;2023-03-24T01:08:23;7.47;;;2.77;;
5279;SDS011;2663;53.588;10.010;2023-03-24T01:10:50;6.37;;;3.00;;
5279;SDS011;2663;53.588;10.010;2023-03-24T01:13:20;9.30;;;3.60;;
5279;SDS011;2663;53.588;10.010;2023-03-24T01:15:48;7.90;;;3.40;;
5279;SDS011;2663;53.588;10.010;2023-03-24T01:18:15;6.70;;;3.70;;
5279;SDS011;2663;53.588;10.010;2023-03-24T01:20:43;4.80;;;2.90;;
5279;SDS011;2663;53.588;10.010;2023-03-24T01:23:13;8.33;;;3.60;;
5279;SDS011;2663;53.588;10.010;2023-03-24T01:25:42;8.00;;;3.90;;
5279;SDS011;2663;53.588;10.010;2023-03-24T01:28:11;8.47;;;3.10;;
5279;SDS011;2663;53.588;10.010;2023-03-24T01:30:38;7.10;;;3.17;;
5279;SDS011;2663;53.588;10.010;2023-03-24T01:33:05;10.77;;;2.90;;
5279;SDS011;2663;53.588;10.010;2023-03-24T01:35:31;6.13;;;2.87;;
5279;SDS011;2663;53.588;10.010;2023-03-24T01:37:59;5.50;;;2.80;;
5279;SDS011;2663;53.588;10.010;2023-03-24T01:40:27;4.80;;;3.30;;
5279;SDS011;2663;53.588;10.010;2023-03-24T01:42:56;6.07;;;2.73;;
5279;SDS011;2663;53.588;10.010;2023-03-24T01:48:15;8.00;;;2.93;;
5279;SDS011;2663;53.588;10.010;2023-03-24T01:50:49;6.23;;;2.47;;
5279;SDS011;2663;53.588;10.010;2023-03-24T01:53:29;7.10;;;2.83;;
5279;SDS011;2663;53.588;10.010;2023-03-24T01:55:57;7.33;;;3.20;;
5279;SDS011;2663;53.588;10.010;2023-03-24T01:58:26;9.23;;;2.80;;
5279;SDS011;2663;53.588;10.010;2023-03-24T02:00:56;25.57;;;3.27;;
5279;SDS011;2663;53.588;10.010;2023-03-24T02:03:23;9.40;;;2.73;;
5279;SDS011;2663;53.588;10.010;2023-03-24T02:05:55;9.73;;;4.07;;
5279;SDS011;2663;53.588;10.010;2023-03-24T02:08:30;11.37;;;4.43;;
5279;SDS011;2663;53.588;10.010;2023-03-24T02:11:02;4.43;;;2.97;;
5279;SDS011;2663;53.588;10.010;2023-03-24T02:13:29;5.73;;;2.83;;
5279;SDS011;2663;53.588;10.010;2023-03-24T02:16:02;3.50;;;2.57;;
5279;SDS011;2663;53.588;10.010;2023-03-24T02:30:52;9.07;;;3.37;;
5279;SDS011;2663;53.588;10.010;2023-03-24T02:33:59;9.33;;;3.07;;
5279;SDS011;2663;53.588;10.010;2023-03-24T02:36:42;13.40;;;4.10;;
5279;SDS011;2663;53.588;10.010;2023-03-24T02:42:29;4.37;;;2.70;;
5279;SDS011;2663;53.588;10.010;2023-03-24T02:45:17;5.20;;;2.63;;
5279;SDS011;2663;53.588;10.010;2023-03-24T02:48:19;6.63;;;3.40;;
5279;SDS011;2663;53.588;10.010;2023-03-24T02:51:03;16.03;;;7.87;;
5279;SDS011;2663;53.588;10.010;2023-03-24T02:56:55;25.90;;;12.87;;
5279;SDS011;2663;53.588;10.010;2023-03-24T03:02:11;12.20;;;4.63;;
5279;SDS011;2663;53.588;10.010;2023-03-24T03:04:43;6.57;;;3.73;;
5279;SDS011;2663;53.588;10.010;2023-03-24T03:07:16;14.37;;;5.80;;
5279;SDS011;2663;53.588;10.010;2023-03-24T03:09:49;4.80;;;4.10;;
5279;SDS011;2663;53.588;10.010;2023-03-24T03:12:21;6.33;;;3.13;;
5279;SDS011;2663;53.588;10.010;2023-03-24T03:14:51;8.20;;;3.17;;
5279;SDS011;2663;53.588;10.010;2023-03-24T03:17:26;10.00;;;4.47;;
5279;SDS011;2663;53.588;10.010;2023-03-24T03:20:00;8.10;;;4.00;;
5279;SDS011;2663;53.588;10.010;2023-03-24T03:22:37;3.97;;;3.10;;
5279;SDS011;2663;53.588;10.010;2023-03-24T03:25:11;7.20;;;5.10;;
5279;SDS011;2663;53.588;10.010;2023-03-24T03:27:41;5.63;;;3.70;;
5279;SDS011;2663;53.588;10.010;2023-03-24T03:30:15;14.20;;;5.07;;
5279;SDS011;2663;53.588;10.010;2023-03-24T03:32:49;7.13;;;3.63;;
5279;SDS011;2663;53.588;10.010;2023-03-24T03:35:24;8.63;;;4.33;;
5279;SDS011;2663;53.588;10.010;2023-03-24T03:38:21;6.13;;;3.80;;
5279;SDS011;2663;53.588;10.010;2023-03-24T03:40:59;12.83;;;3.97;;
5279;SDS011;2663;53.588;10.010;2023-03-24T03:43:28;20.50;;;5.37;;
5279;SDS011;2663;53.588;10.010;2023-03-24T03:45:56;9.07;;;3.67;;
5279;SDS011;2663;53.588;10.010;2023-03-24T03:48:24;5.47;;;3.10;;
5279;SDS011;2663;53.588;10.010;2023-03-24T03:50:52;8.03;;;3.37;;
5279;SDS011;2663;53.588;10.010;2023-03-24T03:53:47;11.53;;;3.10;;
5279;SDS011;2663;53.588;10.010;2023-03-24T03:56:18;6.33;;;2.53;;
5279;SDS011;2663;53.588;10.010;2023-03-24T03:58:47;5.00;;;3.27;;
5279;SDS011;2663;53.588;10.010;2023-03-24T04:01:15;7.07;;;3.23;;
5279;SDS011;2663;53.588;10.010;2023-03-24T04:03:49;3.93;;;2.93;;
5279;SDS011;2663;53.588;10.010;2023-03-24T04:06:40;5.33;;;3.53;;
5279;SDS011;2663;53.588;10.010;2023-03-24T04:15:15;3.47;;;2.60;;
5279;SDS011;2663;53.588;10.010;2023-03-24T04:20:35;5.43;;;3.27;;
5279;SDS011;2663;53.588;10.010;2023-03-24T04:31:28;7.67;;;3.23;;
5279;SDS011;2663;53.588;10.010;2023-03-24T04:34:03;3.00;;;2.50;;
5279;SDS011;2663;53.588;10.010;2023-03-24T04:36:51;6.63;;;3.20;;
5279;SDS011;2663;53.588;10.010;2023-03-24T04:39:28;13.80;;;3.50;;
5279;SDS011;2663;53.588;10.010;2023-03-24T04:41:57;4.83;;;2.57;;
5279;SDS011;2663;53.588;10.010;2023-03-24T04:44:29;4.37;;;3.30;;
5279;SDS011;2663;53.588;10.010;2023-03-24T04:46:58;4.80;;;3.63;;
5279;SDS011;2663;53.588;10.010;2023-03-24T04:49:27;6.83;;;3.30;;
5279;SDS011;2663;53.588;10.010;2023-03-24T04:51:54;4.70;;;3.20;;
5279;SDS011;2663;53.588;10.010;2023-03-24T04:54:21;7.10;;;3.20;;
5279;SDS011;2663;53.588;10.010;2023-03-24T04:56:49;6.57;;;3.10;;
5279;SDS011;2663;53.588;10.010;2023-03-24T04:59:18;2.77;;;2.33;;
5279;SDS011;2663;53.588;10.010;2023-03-24T05:01:45;2.60;;;2.40;;
5279;SDS011;2663;53.588;10.010;2023-03-24T05:04:15;2.60;;;2.40;;
5279;SDS011;2663;53.588;10.010;2023-03-24T05:06:43;2.50;;;2.30;;
5279;SDS011;2663;53.588;10.010;2023-03-24T05:09:12;3.93;;;3.20;;
5279;SDS011;2663;53.588;10.010;2023-03-24T05:11:40;4.37;;;2.80;;
5279;SDS011;2663;53.588;10.010;2023-03-24T05:14:06;3.93;;;2.90;;
5279;SDS011;2663;53.588;10.010;2023-03-24T05:16:33;3.70;;;2.97;;
5279;SDS011;2663;53.588;10.010;2023-03-24T05:19:00;2.93;;;2.60;;
5279;SDS011;2663;53.588;10.010;2023-03-24T05:21:27;4.20;;;3.40;;
5279;SDS011;2663;53.588;10.010;2023-03-24T05:23:54;3.33;;;3.03;;
5279;SDS011;2663;53.588;10.010;2023-03-24T05:26:20;5.77;;;2.63;;
5279;SDS011;2663;53.588;10.010;2023-03-24T05:28:47;3.87;;;2.37;;
5279;SDS011;2663;53.588;10.010;2023-03-24T05:31:14;3.47;;;2.67;;
5279;SDS011;2663;53.588;10.010;2023-03-24T05:33:41;5.97;;;3.33;;
5279;SDS011;2663;53.588;10.010;2023-03-24T05:36:08;6.00;;;2.50;;
5279;SDS011;2663;53.588;10.010;2023-03-24T05:38:35;5.60;;;2.70;;
5279;SDS011;2663;53.588;10.010;2023-03-24T05:41:02;4.87;;;3.00;;
5279;SDS011;2663;53.588;10.010;2023-03-24T05:43:29;2.13;;;2.03;;
5279;SDS011;2663;53.588;10.010;2023-03-24T05:45:55;5.53;;;2.87;;
5279;SDS011;2663;53.588;10.010;2023-03-24T05:48:22;6.87;;;3.00;;
5279;SDS011;2663;53.588;10.010;2023-03-24T05:50:50;4.10;;;3.03;;
5279;SDS011;2663;53.588;10.010;2023-03-24T05:53:17;1.77;;;1.67;;
5279;SDS011;2663;53.588;10.010;2023-03-24T05:55:44;3.00;;;2.63;;
5279;SDS011;2663;53.588;10.010;2023-03-24T05:58:11;2.17;;;2.07;;
5279;SDS011;2663;53.588;10.010;2023-03-24T06:00:38;2.60;;;2.40;;
5279;SDS011;2663;53.588;10.010;2023-03-24T06:03:05;3.23;;;2.97;;
5279;SDS011;2663;53.588;10.010;2023-03-24T06:05:32;7.97;;;3.00;;
5279;SDS011;2663;53.588;10.010;2023-03-24T06:07:59;5.80;;;2.80;;
5279;SDS011;2663;53.588;10.010;2023-03-24T06:10:27;3.13;;;2.33;;
5279;SDS011;2663;53.588;10.010;2023-03-24T06:12:54;3.53;;;2.67;;
5279;SDS011;2663;53.588;10.010;2023-03-24T06:15:21;2.27;;;2.17;;
5279;SDS011;2663;53.588;10.010;2023-03-24T06:17:49;1.83;;;1.73;;
5279;SDS011;2663;53.588;10.010;2023-03-24T06:20:19;2.80;;;2.33;;
5279;SDS011;2663;53.588;10.010;2023-03-24T06:22:46;2.47;;;2.27;;
5279;SDS011;2663;53.588;10.010;2023-03-24T06:25:14;2.57;;;2.37;;
5279;SDS011;2663;53.588;10.010;2023-03-24T06:27:43;7.40;;;2.63;;
5279;SDS011;2663;53.588;10.010;2023-03-24T06:30:14;4.40;;;2.17;;
5279;SDS011;2663;53.588;10.010;2023-03-24T06:32:43;2.00;;;1.90;;
5279;SDS011;2663;53.588;10.010;2023-03-24T06:35:13;2.50;;;1.90;;
5279;SDS011;2663;53.588;10.010;2023-03-24T06:37:41;2.83;;;2.53;;
5279;SDS011;2663;53.588;10.010;2023-03-24T06:40:08;3.57;;;2.17;;
5279;SDS011;2663;53.588;10.010;2023-03-24T06:42:38;3.73;;;1.90;;
5279;SDS011;2663;53.588;10.010;2023-03-24T06:45:05;4.80;;;1.90;;
5279;SDS011;2663;53.588;10.010;2023-03-24T06:47:33;2.20;;;2.00;;
5279;SDS011;2663;53.588;10.010;2023-03-24T06:49:59;4.67;;;1.70;;
5279;SDS011;2663;53.588;10.010;2023-03-24T06:52:26;4.33;;;2.20;;
5279;SDS011;2663;53.588;10.010;2023-03-24T06:54:53;5.63;;;2.50;;
5279;SDS011;2663;53.588;10.010;2023-03-24T06:57:20;5.07;;;2.60;;
5279;SDS011;2663;53.588;10.010;2023-03-24T06:59:47;3.10;;;2.37;;
5279;SDS011;2663;53.588;10.010;2023-03-24T07:02:14;2.90;;;2.60;;
5279;SDS011;2663;53.588;10.010;2023-03-24T07:04:40;2.67;;;2.47;;
5279;SDS011;2663;53.588;10.010;2023-03-24T07:07:07;5.90;;;2.90;;
5279;SDS011;2663;53.588;10.010;2023-03-24T07:09:55;3.60;;;2.90;;
5279;SDS011;2663;53.588;10.010;2023-03-24T07:12:22;2.63;;;2.43;;
5279;SDS011;2663;53.588;10.010;2023-03-24T07:14:49;1.53;;;1.43;;
5279;SDS011;2663;53.588;10.010;2023-03-24T07:17:16;1.73;;;1.63;;
5279;SDS011;2663;53.588;10.010;2023-03-24T07:19:43;1.73;;;1.63;;
5279;SDS011;2663;53.588;10.010;2023-03-24T07:22:12;2.23;;;1.87;;
5279;SDS011;2663;53.588;10.010;2023-03-24T07:24:39;6.50;;;1.67;;
5279;SDS011;2663;53.588;10.010;2023-03-24T07:27:06;5.63;;;2.13;;
5279;SDS011;2663;53.588;10.010;2023-03-24T07:29:33;3.03;;;1.27;;
5279;SDS011;2663;53.588;10.010;2023-03-24T07:32:00;1.60;;;1.50;;
5279;SDS011;2663;53.588;10.010;2023-03-24T07:34:27;1.40;;;1.30;;
5279;SDS011;2663;53.588;10.010;2023-03-24T07:36:54;1.10;;;1.10;;
5279;SDS011;2663;53.588;10.010;2023-03-24T07:39:21;1.57;;;1.47;;
5279;SDS011;2663;53.588;10.010;2023-03-24T07:41:48;2.83;;;1.30;;
5279;SDS011;2663;53.588;10.010;2023-03-24T07:44:14;4.20;;;1.40;;
5279;SDS011;2663;53.588;10.010;2023-03-24T07:46:41;5.20;;;1.70;;
5279;SDS011;2663;53.588;10.010;2023-03-24T07:49:08;3.40;;;1.37;;
5279;SDS011;2663;53.588;10.010;2023-03-24T07:51:44;7.40;;;2.63;;
5279;SDS011;2663;53.588;10.010;2023-03-24T07:54:10;1.73;;;1.63;;
5279;SDS011;2663;53.588;10.010;2023-03-24T07:56:37;4.00;;;1.57;;
5279;SDS011;2663;53.588;10.010;2023-03-24T07:59:04;3.47;;;1.70;;
5279;SDS011;2663;53.588;10.010;2023-03-24T08:01:31;2.50;;;1.30;;
5279;SDS011;2663;53.588;10.010;2023-03-24T08:04:04;3.67;;;1.50;;
5279;SDS011;2663;53.588;10.010;2023-03-24T08:06:32;5.93;;;2.20;;
5279;SDS011;2663;53.588;10.010;2023-03-24T08:08:59;5.83;;;1.40;;
5279;SDS011;2663;53.588;10.010;2023-03-24T08:11:26;6.13;;;1.50;;
5279;SDS011;2663;53.588;10.010;2023-03-24T08:13:53;5.57;;;1.10;;
5279;SDS011;2663;53.588;10.010;2023-03-24T08:16:19;5.50;;;1.67;;
5279;SDS011;2663;53.588;10.010;2023-03-24T08:18:47;2.87;;;1.20;;
5279;SDS011;2663;53.588;10.010;2023-03-24T08:21:13;4.93;;;1.60;;
5279;SDS011;2663;53.588;10.010;2023-03-24T08:23:40;6.47;;;1.40;;
5279;SDS011;2663;53.588;10.010;2023-03-24T08:26:07;3.90;;;1.60;;
5279;SDS011;2663;53.588;10.010;2023-03-24T08:28:36;5.87;;;1.70;;
5279;SDS011;2663;53.588;10.010;2023-03-24T08:31:03;2.70;;;1.00;;
5279;SDS011;2663;53.588;10.010;2023-03-24T08:33:30;4.70;;;1.73;;
5279;SDS011;2663;53.588;10.010;2023-03-24T08:35:57;2.30;;;1.00;;
5279;SDS011;2663;53.588;10.010;2023-03-24T08:38:26;5.23;;;1.63;;
5279;SDS011;2663;53.588;10.010;2023-03-24T08:40:58;2.43;;;1.30;;
5279;SDS011;2663;53.588;10.010;2023-03-24T08:43:28;5.87;;;1.70;;
5279;SDS011;2663;53.588;10.010;2023-03-24T08:45:56;9.10;;;1.73;;
5279;SDS011;2663;53.588;10.010;2023-03-24T08:48:24;6.77;;;1.30;;
5279;SDS011;2663;53.588;10.010;2023-03-24T08:50:51;1.87;;;1.20;;
5279;SDS011;2663;53.588;10.010;2023-03-24T08:53:18;5.40;;;1.70;;
5279;SDS011;2663;53.588;10.010;2023-03-24T08:55:45;13.33;;;2.03;;
5279;SDS011;2663;53.588;10.010;2023-03-24T08:58:16;4.50;;;1.47;;
5279;SDS011;2663;53.588;10.010;2023-03-24T09:00:47;2.83;;;0.87;;
5279;SDS011;2663;53.588;10.010;2023-03-24T09:03:15;7.73;;;1.27;;
5279;SDS011;2663;53.588;10.010;2023-03-24T09:05:47;6.57;;;1.57;;
5279;SDS011;2663;53.588;10.010;2023-03-24T09:08:15;16.47;;;1.60;;
5279;SDS011;2663;53.588;10.010;2023-03-24T09:10:43;5.73;;;1.73;;
5279;SDS011;2663;53.588;10.010;2023-03-24T09:13:13;8.77;;;1.50;;
5279;SDS011;2663;53.588;10.010;2023-03-24T09:15:44;7.03;;;1.40;;
5279;SDS011;2663;53.588;10.010;2023-03-24T09:18:17;14.60;;;2.03;;
5279;SDS011;2663;53.588;10.010;2023-03-24T09:20:45;9.50;;;2.13;;
5279;SDS011;2663;53.588;10.010;2023-03-24T09:23:12;9.97;;;2.10;;
5279;SDS011;2663;53.588;10.010;2023-03-24T09:25:39;8.83;;;1.60;;
5279;SDS011;2663;53.588;10.010;2023-03-24T09:28:06;3.30;;;1.57;;
5279;SDS011;2663;53.588;10.010;2023-03-24T09:30:34;4.13;;;1.23;;
5279;SDS011;2663;53.588;10.010;2023-03-24T09:33:01;14.03;;;2.13;;
5279;SDS011;2663;53.588;10.010;2023-03-24T09:35:27;12.30;;;2.13;;
5279;SDS011;2663;53.588;10.010;2023-03-24T09:37:54;11.93;;;1.97;;
5279;SDS011;2663;53.588;10.010;2023-03-24T09:40:26;6.83;;;1.30;;
5279;SDS011;2663;53.588;10.010;2023-03-24T09:42:59;4.50;;;1.80;;
5279;SDS011;2663;53.588;10.010;2023-03-24T09:45:32;6.57;;;1.83;;
5279;SDS011;2663;53.588;10.010;2023-03-24T09:48:03;13.63;;;1.57;;
5279;SDS011;2663;53.588;10.010;2023-03-24T09:50:39;5.10;;;1.50;;
5279;SDS011;2663;53.588;10.010;2023-03-24T09:53:25;7.80;;;1.37;;
5279;SDS011;2663;53.588;10.010;2023-03-24T09:56:12;2.20;;;1.23;;
5279;SDS011;2663;53.588;10.010;2023-03-24T09:58:41;7.50;;;1.63;;
5279;SDS011;2663;53.588;10.010;2023-03-24T10:01:11;10.97;;;1.40;;
5279;SDS011;2663;53.588;10.010;2023-03-24T10:03:42;8.93;;;1.40;;
5279;SDS011;2663;53.588;10.010;2023-03-24T10:06:14;12.60;;;1.80;;
5279;SDS011;2663;53.588;10.010;2023-03-24T10:08:56;12.93;;;3.03;;
5279;SDS011;2663;53.588;10.010;2023-03-24T10:11:35;12.40;;;1.30;;
5279;SDS011;2663;53.588;10.010;2023-03-24T10:19:47;14.17;;;1.73;;
5279;SDS011;2663;53.588;10.010;2023-03-24T10:27:50;11.10;;;2.00;;
5279;SDS011;2663;53.588;10.010;2023-03-24T10:30:35;9.57;;;1.70;;
5279;SDS011;2663;53.588;10.010;2023-03-24T10:33:10;10.67;;;1.80;;
5279;SDS011;2663;53.588;10.010;2023-03-24T10:35:40;4.50;;;2.10;;
5279;SDS011;2663;53.588;10.010;2023-03-24T10:38:19;8.83;;;2.00;;
5279;SDS011;2663;53.588;10.010;2023-03-24T10:40:48;3.63;;;1.83;;
5279;SDS011;2663;53.588;10.010;2023-03-24T10:43:16;4.93;;;1.63;;
5279;SDS011;2663;53.588;10.010;2023-03-24T10:45:46;5.40;;;1.60;;
5279;SDS011;2663;53.588;10.010;2023-03-24T10:48:32;7.30;;;1.77;;
5279;SDS011;2663;53.588;10.010;2023-03-24T10:50:59;4.20;;;1.10;;
5279;SDS011;2663;53.588;10.010;2023-03-24T10:53:26;5.10;;;1.77;;
5279;SDS011;2663;53.588;10.010;2023-03-24T10:55:52;9.30;;;2.10;;
5279;SDS011;2663;53.588;10.010;2023-03-24T10:58:40;8.97;;;1.80;;
5279;SDS011;2663;53.588;10.010;2023-03-24T11:01:09;6.27;;;1.63;;
5279;SDS011;2663;53.588;10.010;2023-03-24T11:03:57;8.57;;;1.67;;
5279;SDS011;2663;53.588;10.010;2023-03-24T11:06:32;8.27;;;1.17;;
5279;SDS011;2663;53.588;10.010;2023-03-24T11:09:18;10.30;;;1.77;;
5279;SDS011;2663;53.588;10.010;2023-03-24T11:11:46;14.40;;;1.93;;
5279;SDS011;2663;53.588;10.010;2023-03-24T11:14:23;6.13;;;1.53;;
5279;SDS011;2663;53.588;10.010;2023-03-24T11:16:54;5.43;;;2.53;;
5279;SDS011;2663;53.588;10.010;2023-03-24T11:19:34;10.97;;;1.93;;
5279;SDS011;2663;53.588;10.010;2023-03-24T11:22:02;9.70;;;1.43;;
5279;SDS011;2663;53.588;10.010;2023-03-24T11:24:35;10.17;;;2.10;;
5279;SDS011;2663;53.588;10.010;2023-03-24T11:27:03;16.60;;;3.67;;
5279;SDS011;2663;53.588;10.010;2023-03-24T11:29:30;10.10;;;1.70;;
5279;SDS011;2663;53.588;10.010;2023-03-24T11:32:00;4.20;;;1.13;;
5279;SDS011;2663;53.588;10.010;2023-03-24T11:34:32;14.00;;;2.00;;
5279;SDS011;2663;53.588;10.010;2023-03-24T11:37:04;17.27;;;2.10;;
5279;SDS011;2663;53.588;10.010;2023-03-24T11:39:36;10.60;;;1.47;;
5279;SDS011;2663;53.588;10.010;2023-03-24T11:44:51;12.93;;;2.13;;
5279;SDS011;2663;53.588;10.010;2023-03-24T11:47:26;4.20;;;1.10;;
5279;SDS011;2663;53.588;10.010;2023-03-24T11:52:39;4.93;;;1.80;;
5279;SDS011;2663;53.588;10.010;2023-03-24T11:55:12;8.57;;;1.57;;
5279;SDS011;2663;53.588;10.010;2023-03-24T11:57:47;6.40;;;1.40;;
5279;SDS011;2663;53.588;10.010;2023-03-24T12:00:27;10.03;;;2.23;;
5279;SDS011;2663;53.588;10.010;2023-03-24T12:03:29;13.03;;;1.80;;
5279;SDS011;2663;53.588;10.010;2023-03-24T12:06:07;15.03;;;2.23;;
5279;SDS011;2663;53.588;10.010;2023-03-24T12:09:04;15.17;;;2.73;;
5279;SDS011;2663;53.588;10.010;2023-03-24T12:11:48;5.17;;;1.67;;
5279;SDS011;2663;53.588;10.010;2023-03-24T12:14:32;13.40;;;2.63;;
5279;SDS011;2663;53.588;10.010;2023-03-24T12:17:12;7.20;;;1.90;;
5279;SDS011;2663;53.588;10.010;2023-03-24T12:30:37;8.60;;;2.40;;
5279;SDS011;2663;53.588;10.010;2023-03-24T12:47:11;9.70;;;2.50;;
5279;SDS011;2663;53.588;10.010;2023-03-24T12:50:03;21.23;;;2.97;;
5279;SDS011;2663;53.588;10.010;2023-03-24T12:55:36;10.90;;;2.13;;
5279;SDS011;2663;53.588;10.010;2023-03-24T13:01:06;12.43;;;2.60;;
5279;SDS011;2663;53.588;10.010;2023-03-24T13:03:49;9.03;;;1.90;;
5279;SDS011;2663;53.588;10.010;2023-03-24T13:06:28;14.30;;;3.10;;
5279;SDS011;2663;53.588;10.010;2023-03-24T13:11:28;12.50;;;2.83;;
5279;SDS011;2663;53.588;10.010;2023-03-24T13:14:02;11.60;;;2.10;;
5279;SDS011;2663;53.588;10.010;2023-03-24T13:16:33;12.67;;;2.37;;
5279;SDS011;2663;53.588;10.010;2023-03-24T13:19:02;9.27;;;1.80;;
5279;SDS011;2663;53.588;10.010;2023-03-24T13:21:39;19.50;;;2.27;;
5279;SDS011;2663;53.588;10.010;2023-03-24T13:24:07;8.60;;;2.07;;
5279;SDS011;2663;53.588;10.010;2023-03-24T13:26:51;11.90;;;2.20;;
5279;SDS011;2663;53.588;10.010;2023-03-24T13:35:09;7.10;;;1.77;;
5279;SDS011;2663;53.588;10.010;2023-03-24T13:38:01;6.97;;;1.23;;
5279;SDS011;2663;53.588;10.010;2023-03-24T13:40:36;13.40;;;1.97;;
5279;SDS011;2663;53.588;10.010;2023-03-24T13:43:17;8.30;;;1.33;;
5279;SDS011;2663;53.588;10.010;2023-03-24T13:45:49;5.40;;;1.40;;
5279;SDS011;2663;53.588;10.010;2023-03-24T13:48:25;10.07;;;1.53;;
5279;SDS011;2663;53.588;10.010;2023-03-24T13:51:03;8.80;;;1.73;;
5279;SDS011;2663;53.588;10.010;2023-03-24T13:56:31;8.63;;;1.73;;
5279;SDS011;2663;53.588;10.010;2023-03-24T14:14:21;8.43;;;1.50;;
5279;SDS011;2663;53.588;10.010;2023-03-24T14:24:42;6.17;;;1.80;;
5279;SDS011;2663;53.588;10.010;2023-03-24T14:30:04;8.53;;;2.37;;
5279;SDS011;2663;53.588;10.010;2023-03-24T14:32:43;4.43;;;1.50;;
5279;SDS011;2663;53.588;10.010;2023-03-24T14:35:19;7.37;;;1.73;;
5279;SDS011;2663;53.588;10.010;2023-03-24T14:37:51;8.03;;;1.60;;
5279;SDS011;2663;53.588;10.010;2023-03-24T14:40:26;19.40;;;3.50;;
5279;SDS011;2663;53.588;10.010;2023-03-24T14:43:19;4.83;;;1.30;;
5279;SDS011;2663;53.588;10.010;2023-03-24T14:51:46;12.27;;;2.60;;
5279;SDS011;2663;53.588;10.010;2023-03-24T14:57:07;6.90;;;1.30;;
5279;SDS011;2663;53.588;10.010;2023-03-24T15:02:34;7.67;;;1.70;;
5279;SDS011;2663;53.588;10.010;2023-03-24T15:08:16;8.33;;;1.87;;
5279;SDS011;2663;53.588;10.010;2023-03-24T15:10:47;3.73;;;1.20;;
5279;SDS011;2663;53.588;10.010;2023-03-24T15:16:19;8.00;;;1.93;;
5279;SDS011;2663;53.588;10.010;2023-03-24T15:21:26;5.77;;;1.60;;
5279;SDS011;2663;53.588;10.010;2023-03-24T15:23:57;4.93;;;1.27;;
5279;SDS011;2663;53.588;10.010;2023-03-24T15:26:26;3.67;;;1.30;;
5279;SDS011;2663;53.588;10.010;2023-03-24T15:28:55;9.17;;;1.70;;
5279;SDS011;2663;53.588;10.010;2023-03-24T15:31:24;2.10;;;1.20;;
5279;SDS011;2663;53.588;10.010;2023-03-24T15:37:01;8.57;;;2.07;;
5279;SDS011;2663;53.588;10.010;2023-03-24T15:39:34;8.80;;;1.17;;
5279;SDS011;2663;53.588;10.010;2023-03-24T15:42:13;9.03;;;1.40;;
5279;SDS011;2663;53.588;10.010;2023-03-24T15:44:42;6.07;;;1.70;;
5279;SDS011;2663;53.588;10.010;2023-03-24T15:47:12;9.47;;;1.63;;
5279;SDS011;2663;53.588;10.010;2023-03-24T15:49:46;6.13;;;1.30;;
5279;SDS011;2663;53.588;10.010;2023-03-24T15:55:01;5.63;;;1.57;;
5279;SDS011;2663;53.588;10.010;2023-03-24T15:57:36;5.50;;;1.23;;
5279;SDS011;2663;53.588;10.010;2023-03-24T16:00:12;8.70;;;1.30;;
5279;SDS011;2663;53.588;10.010;2023-03-24T16:02:50;7.40;;;1.67;;
5279;SDS011;2663;53.588;10.010;2023-03-24T16:07:53;9.73;;;1.73;;
5279;SDS011;2663;53.588;10.010;2023-03-24T16:13:21;5.13;;;1.53;;
5279;SDS011;2663;53.588;10.010;2023-03-24T16:18:25;16.63;;;1.97;;
5279;SDS011;2663;53.588;10.010;2023-03-24T16:20:58;7.23;;;1.70;;
5279;SDS011;2663;53.588;10.010;2023-03-24T16:23:26;16.47;;;1.93;;
5279;SDS011;2663;53.588;10.010;2023-03-24T16:25:53;9.63;;;1.90;;
5279;SDS011;2663;53.588;10.010;2023-03-24T16:28:20;8.70;;;1.90;;
5279;SDS011;2663;53.588;10.010;2023-03-24T16:30:54;5.53;;;1.60;;
5279;SDS011;2663;53.588;10.010;2023-03-24T16:33:24;23.83;;;1.90;;
5279;SDS011;2663;53.588;10.010;2023-03-24T16:35:52;12.87;;;1.83;;
5279;SDS011;2663;53.588;10.010;2023-03-24T16:38:19;12.73;;;2.63;;
5279;SDS011;2663;53.588;10.010;2023-03-24T16:40:50;6.03;;;1.67;;
5279;SDS011;2663;53.588;10.010;2023-03-24T16:43:19;12.60;;;2.47;;
5279;SDS011;2663;53.588;10.010;2023-03-24T16:45:49;6.53;;;1.77;;
5279;SDS011;2663;53.588;10.010;2023-03-24T16:48:17;9.43;;;2.20;;
5279;SDS011;2663;53.588;10.010;2023-03-24T16:50:45;18.07;;;3.60;;
5279;SDS011;2663;53.588;10.010;2023-03-24T16:53:16;6.93;;;2.00;;
5279;SDS011;2663;53.588;10.010;2023-03-24T16:55:43;9.53;;;2.13;;
5279;SDS011;2663;53.588;10.010;2023-03-24T16:58:14;8.70;;;1.90;;
5279;SDS011;2663;53.588;10.010;2023-03-24T17:00:42;10.67;;;2.20;;
5279;SDS011;2663;53.588;10.010;2023-03-24T17:03:10;14.00;;;2.80;;
5279;SDS011;2663;53.588;10.010;2023-03-24T17:05:40;6.10;;;2.47;;
5279;SDS011;2663;53.588;10.010;2023-03-24T17:08:11;7.10;;;2.00;;
5279;SDS011;2663;53.588;10.010;2023-03-24T17:10:40;10.77;;;1.90;;
5279;SDS011;2663;53.588;10.010;2023-03-24T17:13:09;5.60;;;2.93;;
5279;SDS011;2663;53.588;10.010;2023-03-24T17:15:43;12.73;;;1.33;;
5279;SDS011;2663;53.588;10.010;2023-03-24T17:18:09;10.83;;;2.07;;
5279;SDS011;2663;53.588;10.010;2023-03-24T17:20:36;11.23;;;1.70;;
5279;SDS011;2663;53.588;10.010;2023-03-24T17:23:05;4.43;;;1.50;;
5279;SDS011;2663;53.588;10.010;2023-03-24T17:25:34;7.93;;;2.10;;
5279;SDS011;2663;53.588;10.010;2023-03-24T17:28:00;8.97;;;2.03;;
5279;SDS011;2663;53.588;10.010;2023-03-24T17:30:28;12.43;;;3.00;;
5279;SDS011;2663;53.588;10.010;2023-03-24T17:32:55;11.10;;;2.00;;
5279;SDS011;2663;53.588;10.010;2023-03-24T17:35:23;18.37;;;2.07;;
5279;SDS011;2663;53.588;10.010;2023-03-24T17:37:51;9.57;;;1.80;;
5279;SDS011;2663;53.588;10.010;2023-03-24T17:40:18;8.33;;;1.67;;
5279;SDS011;2663;53.588;10.010;2023-03-24T17:42:45;10.60;;;1.97;;
5279;SDS011;2663;53.588;10.010;2023-03-24T17:45:16;7.83;;;2.20;;
5279;SDS011;2663;53.588;10.010;2023-03-24T17:47:44;13.50;;;2.13;;
5279;SDS011;2663;53.588;10.010;2023-03-24T17:50:11;7.10;;;2.20;;
5279;SDS011;2663;53.588;10.010;2023-03-24T17:52:39;6.93;;;2.30;;
5279;SDS011;2663;53.588;10.010;2023-03-24T17:55:10;15.37;;;3.43;;
5279;SDS011;2663;53.588;10.010;2023-03-24T17:57:38;10.63;;;2.80;;
5279;SDS011;2663;53.588;10.010;2023-03-24T18:00:05;5.77;;;3.03;;
5279;SDS011;2663;53.588;10.010;2023-03-24T18:02:37;9.00;;;3.40;;